Time;durP1;ratioP1;P1;durP2;ratioP2;P2;SDS_P1;SDS_P2;PMS_P1;PMS_P2;Temp;Humidity;BMP_temperature;BMP_pressure;BME280_temperature;BME280_humidity;BME280_pressure;Samples;Min_cycle;Max_cycle;Signal;HPM_P1;HPM_P2
2022/07/11 00:00:14;;;;;;;7.15;2.40;;;16.00;99.90;;;;;;5030949;28;20120;-73
2022/07/11 00:02:40;;;;;;;7.18;2.55;;;15.90;99.90;;;;;;5011495;28;20045;-73
2022/07/11 00:05:08;;;;;;;6.82;2.60;;;15.90;99.90;;;;;;5029455;28;20049;-73
2022/07/11 00:07:34;;;;;;;8.15;3.05;;;15.90;99.90;;;;;;5025977;28;20137;-74
2022/07/11 00:10:00;;;;;;;9.45;3.17;;;15.80;99.90;;;;;;5029984;28;20914;-73
2022/07/11 00:12:26;;;;;;;6.13;2.40;;;15.80;99.90;;;;;;5028735;28;20057;-73
2022/07/11 00:14:53;;;;;;;7.95;2.85;;;15.80;99.90;;;;;;5030280;28;20046;-73
2022/07/11 00:17:19;;;;;;;6.45;2.60;;;15.70;99.90;;;;;;5010114;28;20037;-73
2022/07/11 00:19:46;;;;;;;6.47;2.90;;;15.80;99.90;;;;;;5027808;28;20495;-74
2022/07/11 00:22:11;;;;;;;7.35;2.80;;;15.80;99.90;;;;;;5027678;28;20061;-74
2022/07/11 00:24:37;;;;;;;5.95;2.50;;;15.80;99.90;;;;;;5027713;28;20052;-74
2022/07/11 00:27:04;;;;;;;9.07;2.63;;;15.80;99.90;;;;;;5031035;28;20046;-73
2022/07/11 00:29:30;;;;;;;10.25;3.15;;;15.80;99.90;;;;;;5022713;28;20056;-75
2022/07/11 00:31:57;;;;;;;6.20;2.80;;;15.80;99.90;;;;;;5029099;28;20045;-73
2022/07/11 00:34:23;;;;;;;7.90;2.58;;;15.80;99.90;;;;;;5028546;28;20045;-73
2022/07/11 00:36:49;;;;;;;7.70;2.60;;;15.80;99.90;;;;;;5026412;28;20127;-74
2022/07/11 00:39:15;;;;;;;7.22;2.90;;;15.80;99.90;;;;;;5024096;28;20078;-74
2022/07/11 00:41:41;;;;;;;7.15;2.55;;;15.80;99.90;;;;;;5024042;28;20095;-74
2022/07/11 00:44:07;;;;;;;8.38;2.65;;;15.80;99.90;;;;;;5010214;28;20053;-74
2022/07/11 00:46:32;;;;;;;7.88;2.60;;;15.80;99.90;;;;;;5029486;28;20507;-73
2022/07/11 00:48:59;;;;;;;9.07;2.78;;;15.80;99.90;;;;;;5028157;28;20061;-73
2022/07/11 00:51:26;;;;;;;8.20;2.97;;;15.90;99.90;;;;;;5029405;28;20057;-73
2022/07/11 00:53:54;;;;;;;6.65;2.63;;;15.80;99.90;;;;;;5027822;28;20516;-73
2022/07/11 00:56:22;;;;;;;7.03;2.80;;;15.80;99.90;;;;;;5029724;28;20129;-74
2022/07/11 00:58:48;;;;;;;7.55;2.50;;;15.80;99.90;;;;;;5028587;28;20604;-73
2022/07/11 01:01:15;;;;;;;6.90;2.50;;;15.80;99.90;;;;;;5029751;28;20079;-72
2022/07/11 01:03:41;;;;;;;6.78;2.45;;;15.90;99.90;;;;;;5028850;28;20056;-73
2022/07/11 01:06:08;;;;;;;7.25;2.33;;;15.80;99.90;;;;;;5013214;28;20085;-73
2022/07/11 01:08:38;;;;;;;4.90;2.10;;;15.80;99.90;;;;;;5028469;28;20136;-73
2022/07/11 01:11:05;;;;;;;7.82;2.33;;;15.80;99.90;;;;;;5029200;28;20437;-74
2022/07/11 01:13:31;;;;;;;8.60;2.30;;;15.80;99.90;;;;;;5027982;28;20052;-73
2022/07/11 01:16:07;;;;;;;5.47;2.20;;;15.80;99.90;;;;;;5025989;28;20054;-73
2022/07/11 01:18:33;;;;;;;8.60;2.40;;;15.80;99.90;;;;;;5028797;28;20057;-74
2022/07/11 01:20:59;;;;;;;7.68;2.70;;;15.80;99.90;;;;;;5030950;28;20042;-74
2022/07/11 01:23:25;;;;;;;5.78;2.28;;;15.80;99.90;;;;;;5029330;28;20053;-74
2022/07/11 01:25:51;;;;;;;6.30;2.60;;;15.80;99.90;;;;;;5032875;28;20045;-75
2022/07/11 01:28:17;;;;;;;9.10;2.70;;;15.80;99.90;;;;;;5032059;28;20077;-75
2022/07/11 01:30:43;;;;;;;6.70;2.25;;;15.80;99.90;;;;;;5033837;28;20053;-74
2022/07/11 01:33:09;;;;;;;6.43;2.35;;;15.80;99.90;;;;;;5028876;28;20047;-73
2022/07/11 01:35:35;;;;;;;7.28;2.10;;;15.70;99.90;;;;;;5032109;28;20061;-74
2022/07/11 01:38:00;;;;;;;6.68;2.35;;;15.80;99.90;;;;;;5044225;28;20081;-74
2022/07/11 01:40:26;;;;;;;7.10;2.50;;;15.70;99.90;;;;;;5033445;28;20052;-74
2022/07/11 01:42:52;;;;;;;5.38;2.15;;;15.70;99.90;;;;;;5028491;28;20053;-73
2022/07/11 01:45:18;;;;;;;6.97;2.20;;;15.70;99.90;;;;;;5030807;28;20409;-74
2022/07/11 01:47:43;;;;;;;5.90;2.10;;;15.70;99.90;;;;;;5032363;28;20132;-74
2022/07/11 01:50:09;;;;;;;6.78;2.20;;;15.70;99.90;;;;;;5013575;28;20052;-74
2022/07/11 01:52:35;;;;;;;6.90;1.90;;;15.70;99.90;;;;;;5031485;28;20536;-73
2022/07/11 01:55:00;;;;;;;5.68;2.30;;;15.70;99.90;;;;;;5030096;28;20050;-73
2022/07/11 01:57:26;;;;;;;6.60;2.33;;;15.70;99.90;;;;;;5029687;28;20057;-73
2022/07/11 01:59:52;;;;;;;7.57;2.00;;;15.70;99.90;;;;;;5030759;28;20045;-76
2022/07/11 02:02:18;;;;;;;6.10;2.30;;;15.70;99.90;;;;;;5027118;28;20045;-73
2022/07/11 02:04:43;;;;;;;5.35;1.83;;;15.70;99.90;;;;;;5031986;28;20072;-74
2022/07/11 02:07:11;;;;;;;6.45;2.10;;;15.60;99.90;;;;;;5028641;28;20488;-73
2022/07/11 02:09:38;;;;;;;5.68;1.90;;;15.60;99.90;;;;;;5031777;28;20472;-74
2022/07/11 02:12:05;;;;;;;5.35;1.80;;;15.60;99.90;;;;;;5030103;28;20085;-78
2022/07/11 02:14:31;;;;;;;7.03;2.00;;;15.60;99.90;;;;;;5029266;28;20054;-74
2022/07/11 02:16:57;;;;;;;6.05;1.83;;;15.60;99.90;;;;;;5027560;28;20049;-73
2022/07/11 02:19:23;;;;;;;5.72;2.00;;;15.60;99.90;;;;;;5012049;28;20130;-74
2022/07/11 02:21:49;;;;;;;6.85;2.20;;;15.60;99.90;;;;;;5030971;28;20075;-74
2022/07/11 02:24:14;;;;;;;5.53;1.83;;;15.60;99.90;;;;;;5027939;28;20115;-77
2022/07/11 02:26:41;;;;;;;7.45;2.55;;;15.60;99.90;;;;;;5027766;28;20081;-74
2022/07/11 02:29:07;;;;;;;6.00;2.22;;;15.60;99.90;;;;;;5027061;28;20080;-75
2022/07/11 02:31:33;;;;;;;6.22;2.38;;;15.60;99.90;;;;;;5028671;28;20072;-73
2022/07/11 02:33:58;;;;;;;6.53;2.35;;;15.60;99.90;;;;;;5030317;28;20554;-73
2022/07/11 02:36:25;;;;;;;4.95;2.30;;;15.60;99.90;;;;;;5032359;28;20045;-74
2022/07/11 02:38:50;;;;;;;5.53;2.35;;;15.60;99.90;;;;;;5031481;28;20476;-72
2022/07/11 02:41:18;;;;;;;8.27;3.00;;;15.60;99.90;;;;;;5031575;28;20053;-74
2022/07/11 02:43:44;;;;;;;7.65;2.90;;;15.60;99.90;;;;;;5028316;28;20049;-73
2022/07/11 02:46:09;;;;;;;5.30;2.08;;;15.60;99.90;;;;;;5031524;28;20076;-74
2022/07/11 02:48:35;;;;;;;6.10;2.65;;;15.60;99.90;;;;;;5030815;28;20060;-74
2022/07/11 02:51:01;;;;;;;5.65;2.40;;;15.60;99.90;;;;;;5031746;28;20037;-74
2022/07/11 02:53:26;;;;;;;6.97;2.60;;;15.60;99.90;;;;;;5014303;28;20049;-72
2022/07/11 02:55:52;;;;;;;5.82;2.30;;;15.60;99.90;;;;;;5031294;28;20048;-74
2022/07/11 02:58:18;;;;;;;5.93;2.55;;;15.50;99.90;;;;;;5031355;28;20121;-73
2022/07/11 03:00:44;;;;;;;7.53;2.58;;;15.50;99.90;;;;;;5030385;28;20045;-73
2022/07/11 03:03:09;;;;;;;7.07;2.58;;;15.50;99.90;;;;;;5030570;28;20053;-72
2022/07/11 03:05:35;;;;;;;6.68;2.80;;;15.50;99.90;;;;;;5030945;28;20388;-73
2022/07/11 03:08:01;;;;;;;4.72;1.92;;;15.50;99.90;;;;;;5030057;28;20117;-72
2022/07/11 03:10:26;;;;;;;7.38;2.92;;;15.50;99.90;;;;;;5028480;28;20056;-73
2022/07/11 03:12:52;;;;;;;6.57;2.70;;;15.40;99.90;;;;;;5024349;28;20049;-73
2022/07/11 03:15:18;;;;;;;5.05;2.33;;;15.40;99.90;;;;;;5028426;28;20615;-73
2022/07/11 03:17:44;;;;;;;5.40;3.13;;;15.40;99.90;;;;;;5028810;28;20451;-75
2022/07/11 03:20:10;;;;;;;6.93;2.80;;;15.40;99.90;;;;;;5028521;28;20116;-73
2022/07/11 03:22:36;;;;;;;5.70;2.60;;;15.40;99.90;;;;;;5029678;28;20052;-73
2022/07/11 03:25:05;;;;;;;4.65;2.22;;;15.40;99.90;;;;;;5029499;28;20045;-73
2022/07/11 03:27:32;;;;;;;5.78;2.70;;;15.40;99.90;;;;;;5028064;28;20119;-74
2022/07/11 03:29:58;;;;;;;6.07;2.42;;;15.50;99.90;;;;;;5027210;28;20044;-73
2022/07/11 03:32:23;;;;;;;7.18;3.58;;;15.50;99.90;;;;;;5020727;28;20053;-73
2022/07/11 03:37:33;;;;;;;4.82;2.50;;;15.40;99.90;;;;;;5019853;28;20037;-72
2022/07/11 03:39:59;;;;;;;5.78;2.60;;;15.40;99.90;;;;;;5018782;28;20499;-72
2022/07/11 03:42:25;;;;;;;6.32;2.80;;;15.50;99.90;;;;;;5020347;28;20050;-75
2022/07/11 03:44:51;;;;;;;5.22;2.30;;;15.50;99.90;;;;;;5019938;28;20476;-73
2022/07/11 03:47:18;;;;;;;6.53;2.72;;;15.50;99.90;;;;;;5021812;28;20041;-73
2022/07/11 03:49:44;;;;;;;5.15;2.50;;;15.50;99.90;;;;;;4984195;28;20197;-74
2022/07/11 03:52:10;;;;;;;5.38;2.65;;;15.50;99.90;;;;;;5026368;28;20060;-73
2022/07/11 03:54:35;;;;;;;5.60;2.80;;;15.50;99.90;;;;;;5000256;28;20056;-73
2022/07/11 03:57:02;;;;;;;6.50;3.08;;;15.50;99.90;;;;;;5018814;28;20080;-73
2022/07/11 03:59:28;;;;;;;7.03;3.70;;;15.50;99.90;;;;;;5017209;28;20548;-71
2022/07/11 04:01:53;;;;;;;5.65;2.90;;;15.50;99.90;;;;;;5020832;28;20140;-72
2022/07/11 04:04:19;;;;;;;6.22;3.17;;;15.50;99.90;;;;;;5020015;28;20053;-73
2022/07/11 04:06:45;;;;;;;5.22;3.00;;;15.50;99.90;;;;;;5018251;28;20046;-73
2022/07/11 04:09:11;;;;;;;5.75;3.00;;;15.50;99.90;;;;;;5017614;28;20049;-73
2022/07/11 04:11:37;;;;;;;6.75;3.40;;;15.50;99.90;;;;;;5018543;28;20050;-73
2022/07/11 04:14:02;;;;;;;5.57;3.20;;;15.50;99.90;;;;;;5021626;28;20156;-74
2022/07/11 04:16:28;;;;;;;5.65;2.83;;;15.50;99.90;;;;;;5026818;28;20073;-72
2022/07/11 04:18:54;;;;;;;6.47;2.70;;;15.50;99.90;;;;;;5026775;28;20546;-73
2022/07/11 04:21:19;;;;;;;6.15;3.20;;;15.60;99.90;;;;;;5028206;28;20053;-73
2022/07/11 04:23:45;;;;;;;6.00;2.75;;;15.60;99.90;;;;;;5029487;28;20103;-73
2022/07/11 04:26:11;;;;;;;5.47;2.70;;;15.60;99.90;;;;;;5030794;28;20045;-73
2022/07/11 04:28:36;;;;;;;5.18;2.50;;;15.60;99.90;;;;;;5028494;28;20042;-73
2022/07/11 04:31:02;;;;;;;6.03;2.83;;;15.60;99.90;;;;;;5024615;28;20117;-72
2022/07/11 04:33:28;;;;;;;4.70;2.42;;;15.60;99.90;;;;;;5028378;28;20045;-73
2022/07/11 04:35:54;;;;;;;5.70;2.60;;;15.60;99.90;;;;;;5013509;28;20445;-73
2022/07/11 04:38:23;;;;;;;4.93;2.53;;;15.70;99.90;;;;;;5030235;28;20042;-73
2022/07/11 04:40:50;;;;;;;6.68;3.50;;;15.70;99.90;;;;;;5030564;28;20060;-73
2022/07/11 04:43:16;;;;;;;6.80;3.15;;;15.80;99.90;;;;;;5029291;28;20038;-73
2022/07/11 04:45:42;;;;;;;5.75;3.03;;;15.70;99.90;;;;;;5030760;28;20425;-73
2022/07/11 04:48:07;;;;;;;6.32;3.13;;;15.80;99.90;;;;;;5045714;28;20095;-73
2022/07/11 04:50:33;;;;;;;6.65;3.20;;;15.80;99.90;;;;;;5028713;28;20496;-73
2022/07/11 04:52:58;;;;;;;8.07;3.22;;;15.80;99.90;;;;;;5022442;28;20042;-74
2022/07/11 04:55:24;;;;;;;6.43;2.95;;;15.80;99.90;;;;;;5023808;28;20045;-75
2022/07/11 04:57:51;;;;;;;7.07;3.10;;;15.80;99.90;;;;;;5008785;28;20538;-73
2022/07/11 05:00:17;;;;;;;5.80;3.30;;;15.90;99.90;;;;;;5009525;28;20461;-72
2022/07/11 05:02:43;;;;;;;5.55;2.92;;;15.90;99.90;;;;;;5032637;28;20053;-75
2022/07/11 05:05:09;;;;;;;6.05;2.80;;;16.00;99.90;;;;;;5014000;28;20445;-72
2022/07/11 05:07:35;;;;;;;5.50;2.63;;;16.10;99.90;;;;;;5030151;28;20141;-72
2022/07/11 05:10:01;;;;;;;6.53;2.60;;;16.20;99.90;;;;;;5030120;28;20124;-73
2022/07/11 05:12:27;;;;;;;6.10;2.72;;;16.20;99.90;;;;;;5013695;28;20136;-72
2022/07/11 05:14:53;;;;;;;6.32;2.60;;;16.20;99.90;;;;;;5030273;28;20568;-73
2022/07/11 05:17:18;;;;;;;5.30;2.38;;;16.20;99.90;;;;;;5032718;28;20535;-73
2022/07/11 05:19:44;;;;;;;5.18;2.40;;;16.20;99.90;;;;;;5030880;28;20137;-74
2022/07/11 05:22:10;;;;;;;5.05;2.20;;;16.20;99.90;;;;;;5010346;28;20140;-74
2022/07/11 05:24:36;;;;;;;5.18;2.15;;;16.10;99.90;;;;;;5020738;28;20087;-74
2022/07/11 05:27:02;;;;;;;4.57;2.08;;;16.10;99.90;;;;;;5027869;28;20073;-73
2022/07/11 05:29:28;;;;;;;4.72;2.00;;;16.20;99.90;;;;;;4980995;28;20041;-73
2022/07/11 05:31:53;;;;;;;4.25;1.85;;;16.20;99.90;;;;;;5030555;28;20051;-74
2022/07/11 05:34:20;;;;;;;4.28;1.70;;;16.30;99.90;;;;;;5029722;28;20057;-74
2022/07/11 05:36:46;;;;;;;3.72;1.60;;;16.30;99.90;;;;;;5029123;28;20485;-73
2022/07/11 05:39:15;;;;;;;3.60;1.60;;;16.40;99.90;;;;;;5048359;28;20049;-74
2022/07/11 05:41:40;;;;;;;5.30;1.67;;;16.30;99.90;;;;;;5031079;28;20409;-73
2022/07/11 05:44:06;;;;;;;3.55;1.40;;;16.30;99.90;;;;;;5026321;28;20045;-73
2022/07/11 05:46:32;;;;;;;4.10;1.60;;;16.30;99.90;;;;;;5031424;28;20067;-72
2022/07/11 05:48:57;;;;;;;4.05;1.48;;;16.20;99.90;;;;;;5031943;28;20092;-73
2022/07/11 05:51:23;;;;;;;3.78;1.70;;;16.20;99.90;;;;;;5032191;28;20459;-73
2022/07/11 05:53:49;;;;;;;3.60;1.52;;;16.40;99.90;;;;;;5014469;28;20045;-72
2022/07/11 05:56:15;;;;;;;3.90;1.58;;;16.50;99.90;;;;;;5027767;28;20112;-72
2022/07/11 05:58:40;;;;;;;3.65;1.50;;;16.60;99.90;;;;;;5030275;28;20034;-77
2022/07/11 06:01:06;;;;;;;3.67;1.50;;;16.70;99.90;;;;;;5028831;28;20081;-73
2022/07/11 06:03:31;;;;;;;4.88;1.40;;;16.70;99.90;;;;;;5030758;28;20049;-77
2022/07/11 06:05:57;;;;;;;3.08;1.33;;;16.80;99.90;;;;;;5029345;28;20116;-73
2022/07/11 06:08:41;;;;;;;4.50;1.50;;;16.90;99.90;;;;;;5029654;28;20096;-74
2022/07/11 06:11:11;;;;;;;3.80;1.45;;;16.90;99.90;;;;;;5028186;28;20053;-74
2022/07/11 06:13:38;;;;;;;3.17;1.30;;;16.90;99.90;;;;;;5011354;28;20154;-74
2022/07/11 06:16:08;;;;;;;5.13;1.40;;;16.90;99.90;;;;;;5028520;28;20080;-74
2022/07/11 06:18:35;;;;;;;4.20;1.70;;;16.90;99.90;;;;;;5025708;28;20408;-74
2022/07/11 06:21:01;;;;;;;3.25;1.30;;;17.00;99.90;;;;;;5029042;28;20487;-74
2022/07/11 06:23:27;;;;;;;3.90;1.40;;;16.90;99.90;;;;;;5030430;28;20080;-75
2022/07/11 06:25:53;;;;;;;4.43;1.45;;;16.80;99.90;;;;;;5030895;28;20057;-75
2022/07/11 06:28:19;;;;;;;3.67;1.10;;;16.80;99.90;;;;;;5028910;28;20365;-74
2022/07/11 06:30:45;;;;;;;3.88;1.10;;;16.80;99.90;;;;;;5032705;28;20082;-75
2022/07/11 06:33:10;;;;;;;3.30;1.20;;;16.70;99.90;;;;;;5030195;28;20069;-73
2022/07/11 06:35:36;;;;;;;2.88;0.90;;;16.70;99.90;;;;;;5011697;28;20046;-74
2022/07/11 06:38:02;;;;;;;2.10;0.88;;;16.60;99.90;;;;;;5024365;28;20607;-74
2022/07/11 06:40:28;;;;;;;2.63;0.90;;;16.60;99.90;;;;;;5030380;28;20048;-74
2022/07/11 06:42:54;;;;;;;3.05;0.90;;;16.60;99.90;;;;;;5010206;28;20049;-74
2022/07/11 06:45:20;;;;;;;3.03;0.80;;;16.60;99.90;;;;;;5027364;28;20132;-74
2022/07/11 06:47:45;;;;;;;1.65;0.75;;;16.70;99.90;;;;;;5019270;28;20042;-75
2022/07/11 06:50:11;;;;;;;2.60;0.80;;;16.60;99.90;;;;;;5027579;28;20480;-74
2022/07/11 06:52:37;;;;;;;2.55;0.80;;;16.60;99.90;;;;;;5023543;28;20503;-77
2022/07/11 06:55:03;;;;;;;4.28;0.90;;;16.70;99.90;;;;;;5027037;28;20432;-74
2022/07/11 06:57:29;;;;;;;2.20;0.80;;;16.70;99.90;;;;;;5027683;28;20496;-74
2022/07/11 06:59:54;;;;;;;3.90;0.80;;;16.70;99.90;;;;;;5024955;28;20045;-74
2022/07/11 07:02:23;;;;;;;3.33;0.70;;;16.70;99.90;;;;;;5028770;28;20065;-75
2022/07/11 07:04:48;;;;;;;2.60;0.80;;;16.80;99.90;;;;;;5025282;28;20104;-75
2022/07/11 07:07:14;;;;;;;3.25;0.88;;;16.80;99.90;;;;;;5025331;28;20053;-74
2022/07/11 07:09:41;;;;;;;2.83;0.70;;;16.90;99.90;;;;;;5028564;28;20038;-74
2022/07/11 07:12:07;;;;;;;2.83;0.80;;;17.00;99.90;;;;;;5023541;28;20489;-73
2022/07/11 07:14:32;;;;;;;2.47;0.70;;;17.20;99.90;;;;;;5023625;28;20087;-74
2022/07/11 07:16:58;;;;;;;2.15;0.70;;;17.40;99.90;;;;;;5021351;28;20089;-73
2022/07/11 07:19:24;;;;;;;2.67;0.77;;;17.60;99.90;;;;;;5028218;28;20120;-74
2022/07/11 07:21:49;;;;;;;2.33;0.80;;;17.80;99.90;;;;;;5028153;28;20061;-74
2022/07/11 07:24:15;;;;;;;3.00;0.77;;;18.00;99.90;;;;;;5027750;28;20049;-75
2022/07/11 07:26:41;;;;;;;2.22;0.70;;;18.00;99.90;;;;;;5025105;28;20041;-74
2022/07/11 07:29:06;;;;;;;1.63;0.60;;;18.10;99.90;;;;;;4979792;28;20038;-74
2022/07/11 07:31:32;;;;;;;2.13;0.80;;;18.10;99.90;;;;;;5021150;28;20045;-74
2022/07/11 07:33:58;;;;;;;2.22;0.73;;;18.10;99.90;;;;;;5028167;28;20073;-74
2022/07/11 07:36:24;;;;;;;3.13;0.90;;;18.20;99.90;;;;;;5028508;28;20132;-74
2022/07/11 07:38:49;;;;;;;2.80;0.88;;;18.20;99.90;;;;;;5028243;28;20690;-74
2022/07/11 07:41:16;;;;;;;5.05;0.80;;;18.10;99.90;;;;;;5029340;28;20053;-73
2022/07/11 07:43:42;;;;;;;2.58;0.80;;;18.00;99.90;;;;;;5025179;28;20524;-74
2022/07/11 07:46:09;;;;;;;2.65;0.70;;;18.00;99.90;;;;;;5029529;28;20068;-73
2022/07/11 07:48:35;;;;;;;2.17;0.80;;;17.90;99.90;;;;;;5027945;28;20085;-73
2022/07/11 07:51:00;;;;;;;2.30;0.93;;;17.90;99.90;;;;;;5005105;28;21762;-72
2022/07/11 07:53:26;;;;;;;2.88;0.90;;;18.10;99.90;;;;;;5023780;28;20116;-73
2022/07/11 07:55:52;;;;;;;3.30;1.00;;;18.60;99.90;;;;;;5028943;28;20049;-76
2022/07/11 07:58:18;;;;;;;2.67;0.88;;;18.80;99.90;;;;;;5004973;28;20057;-74
2022/07/11 08:03:27;;;;;;;1.27;0.60;;;18.90;99.90;;;;;;5030268;28;20072;-75
2022/07/11 08:05:53;;;;;;;1.98;0.60;;;19.00;99.90;;;;;;5030084;28;20418;-73
2022/07/11 08:08:19;;;;;;;2.13;0.70;;;18.90;99.90;;;;;;5025557;28;20484;-73
2022/07/11 08:10:44;;;;;;;2.75;0.52;;;18.90;99.90;;;;;;5006704;28;20049;-73
2022/07/11 08:13:10;;;;;;;1.65;0.65;;;18.70;99.90;;;;;;5024162;28;20115;-73
2022/07/11 08:15:36;;;;;;;2.83;0.60;;;18.60;99.90;;;;;;5012620;28;20049;-73
2022/07/11 08:18:01;;;;;;;0.98;0.50;;;18.40;99.90;;;;;;5019435;28;20033;-73
2022/07/11 08:20:27;;;;;;;1.23;0.60;;;18.30;99.90;;;;;;5026676;28;20085;-72
2022/07/11 08:22:58;;;;;;;2.60;0.73;;;18.20;99.90;;;;;;5017345;28;20061;-76
2022/07/11 08:25:24;;;;;;;2.13;0.75;;;18.20;99.90;;;;;;5021601;28;20068;-73
2022/07/11 08:27:49;;;;;;;2.90;0.70;;;18.20;99.90;;;;;;5017480;28;20045;-73
2022/07/11 08:30:15;;;;;;;1.80;0.80;;;18.30;99.90;;;;;;5022225;28;20037;-74
2022/07/11 08:32:41;;;;;;;1.92;0.70;;;18.30;99.90;;;;;;5025217;28;20049;-73
2022/07/11 08:35:07;;;;;;;2.05;0.77;;;18.40;99.90;;;;;;5029521;28;20442;-74
2022/07/11 08:37:33;;;;;;;2.47;0.70;;;18.40;99.90;;;;;;5030224;28;20129;-76
2022/07/11 08:39:59;;;;;;;3.10;0.77;;;18.50;99.90;;;;;;5029720;28;20046;-73
2022/07/11 08:42:29;;;;;;;2.78;0.80;;;18.30;99.90;;;;;;5029963;28;20080;-73
2022/07/11 08:44:56;;;;;;;1.88;0.60;;;18.40;99.90;;;;;;5026458;28;20120;-74
2022/07/11 08:47:24;;;;;;;1.60;0.70;;;18.50;99.90;;;;;;5029549;28;20076;-73
2022/07/11 08:49:51;;;;;;;2.40;0.80;;;18.50;99.90;;;;;;5023784;28;20477;-73
2022/07/11 08:52:19;;;;;;;1.58;0.63;;;18.60;99.90;;;;;;5026317;28;20124;-74
2022/07/11 08:54:45;;;;;;;2.08;0.60;;;18.70;99.90;;;;;;5030372;28;20423;-73
2022/07/11 08:57:12;;;;;;;1.63;0.70;;;18.60;99.90;;;;;;5029899;28;20053;-73
2022/07/11 08:59:41;;;;;;;1.65;0.50;;;18.70;99.90;;;;;;5022187;28;20132;-74
2022/07/11 09:02:09;;;;;;;1.05;0.60;;;18.70;99.90;;;;;;5009575;28;20049;-74
2022/07/11 09:04:35;;;;;;;1.10;0.50;;;18.80;99.90;;;;;;5023070;28;20084;-74
2022/07/11 09:07:01;;;;;;;1.25;0.50;;;18.80;99.90;;;;;;5017201;28;20477;-75
2022/07/11 09:09:28;;;;;;;1.40;0.50;;;18.90;99.90;;;;;;5009551;28;20049;-74
2022/07/11 09:11:56;;;;;;;0.95;0.50;;;18.90;99.90;;;;;;5013289;28;20099;-74
2022/07/11 09:14:27;;;;;;;0.88;0.55;;;18.90;99.90;;;;;;5025701;28;20484;-77
2022/07/11 09:17:02;;;;;;;1.58;0.40;;;18.90;99.90;;;;;;5023533;28;20048;-76
2022/07/11 09:19:30;;;;;;;0.93;0.40;;;19.00;99.90;;;;;;5028465;28;20076;-74
2022/07/11 09:27:44;;;;;;;1.20;0.50;;;19.10;99.90;;;;;;5021449;28;20041;-74
2022/07/11 09:30:19;;;;;;;1.15;0.30;;;19.10;99.90;;;;;;5028031;28;20038;-74
2022/07/11 09:32:55;;;;;;;1.15;0.50;;;19.10;99.90;;;;;;5029610;28;20056;-74
2022/07/11 09:35:27;;;;;;;1.10;0.60;;;19.20;99.90;;;;;;5029439;28;20057;-74
2022/07/11 09:37:53;;;;;;;1.60;0.60;;;19.30;99.90;;;;;;5027764;28;20073;-75
2022/07/11 09:40:21;;;;;;;1.85;0.70;;;19.40;99.90;;;;;;5028295;28;20147;-73
2022/07/11 09:42:52;;;;;;;2.05;0.70;;;19.40;99.90;;;;;;5030417;28;20140;-76
2022/07/11 09:45:20;;;;;;;1.40;0.50;;;19.40;99.90;;;;;;5026157;28;20054;-73
2022/07/11 09:47:47;;;;;;;2.33;0.70;;;19.40;99.90;;;;;;5030648;28;20050;-74
2022/07/11 09:50:27;;;;;;;1.42;0.60;;;19.40;99.90;;;;;;5024134;28;20389;-74
2022/07/11 09:53:03;;;;;;;2.05;0.60;;;19.30;99.90;;;;;;5031733;28;20061;-75
2022/07/11 09:55:34;;;;;;;1.83;0.70;;;19.20;99.90;;;;;;5025170;28;20103;-76
2022/07/11 09:58:04;;;;;;;3.20;0.80;;;19.20;99.90;;;;;;5021675;28;20133;-73
2022/07/11 10:00:30;;;;;;;2.30;0.82;;;19.00;99.90;;;;;;5022884;28;20292;-75
2022/07/11 10:02:58;;;;;;;1.88;0.80;;;18.90;99.90;;;;;;5029602;28;20049;-75
2022/07/11 10:05:24;;;;;;;2.45;1.13;;;18.90;99.90;;;;;;5029533;28;20069;-73
2022/07/11 10:07:50;;;;;;;1.65;0.80;;;18.90;99.90;;;;;;5028783;28;20058;-74
2022/07/11 10:10:16;;;;;;;1.60;0.90;;;18.90;99.90;;;;;;5029607;28;20488;-74
2022/07/11 10:12:46;;;;;;;3.47;0.85;;;19.00;99.90;;;;;;5027414;28;20041;-76
2022/07/11 10:15:15;;;;;;;3.00;0.80;;;19.00;99.90;;;;;;5031782;28;20075;-74
2022/07/11 10:18:02;;;;;;;2.25;0.70;;;19.10;99.90;;;;;;5026732;28;20049;-74
2022/07/11 10:20:49;;;;;;;2.22;0.80;;;19.20;99.90;;;;;;5025136;28;20042;-74
2022/07/11 10:23:37;;;;;;;2.30;0.80;;;19.20;99.90;;;;;;5026026;28;20049;-75
2022/07/11 10:26:33;;;;;;;2.42;0.80;;;19.20;99.90;;;;;;5027798;28;20053;-76
2022/07/11 10:29:07;;;;;;;2.28;0.82;;;19.20;99.90;;;;;;5027976;28;20049;-75
2022/07/11 10:31:34;;;;;;;2.58;0.90;;;19.30;99.90;;;;;;5027386;28;20504;-74
2022/07/11 10:34:04;;;;;;;2.90;0.90;;;19.20;99.90;;;;;;5024019;28;20046;-74
2022/07/11 10:36:32;;;;;;;2.45;0.80;;;19.10;99.90;;;;;;5023435;28;20052;-77
2022/07/11 10:39:29;;;;;;;2.10;0.80;;;19.10;99.90;;;;;;5020562;28;20053;-77
2022/07/11 10:41:57;;;;;;;3.60;0.80;;;19.20;99.90;;;;;;5026252;28;20049;-75
2022/07/11 10:44:24;;;;;;;2.55;0.80;;;19.20;99.90;;;;;;5016244;28;20128;-76
2022/07/11 10:46:50;;;;;;;1.73;0.77;;;19.30;99.90;;;;;;5019126;28;20077;-75
2022/07/11 10:49:42;;;;;;;1.35;0.70;;;19.40;99.90;;;;;;5022528;28;20100;-75
2022/07/11 10:52:08;;;;;;;;;;;19.50;99.90;;;;;;5021163;28;20045;-74
2022/07/11 10:54:43;;;;;;;1.77;0.60;;;19.40;99.90;;;;;;5028289;28;19927;-74
2022/07/11 10:57:27;;;;;;;2.03;0.60;;;19.50;99.90;;;;;;5019233;28;20053;-74
2022/07/11 10:59:57;;;;;;;1.42;0.50;;;19.50;99.90;;;;;;5027411;28;20053;-75
2022/07/11 11:02:23;;;;;;;1.15;0.65;;;19.50;99.90;;;;;;5029277;28;20045;-75
2022/07/11 11:04:52;;;;;;;2.47;0.70;;;19.60;99.90;;;;;;5021787;28;20038;-76
2022/07/11 11:07:37;;;;;;;2.15;0.60;;;19.60;99.90;;;;;;5007834;28;20049;-75
2022/07/11 11:10:07;;;;;;;1.45;0.60;;;19.70;99.90;;;;;;5008837;28;20042;-75
2022/07/11 11:13:04;;;;;;;2.97;0.63;;;19.80;99.90;;;;;;5013544;28;20045;-75
2022/07/11 11:15:45;;;;;;;1.63;0.60;;;19.80;99.90;;;;;;5025198;28;20183;-74
2022/07/11 11:18:23;;;;;;;2.45;0.60;;;19.70;99.90;;;;;;5028286;28;20053;-74
2022/07/11 11:21:00;;;;;;;2.13;0.60;;;19.60;99.90;;;;;;5028826;28;20573;-76
2022/07/11 11:23:35;;;;;;;3.15;0.70;;;19.70;99.90;;;;;;5028358;28;20068;-76
2022/07/11 11:26:21;;;;;;;2.78;0.60;;;19.90;99.90;;;;;;5023370;28;20041;-75
2022/07/11 11:29:04;;;;;;;1.83;0.57;;;20.00;99.90;;;;;;5024492;28;20058;-76
2022/07/11 11:31:31;;;;;;;0.93;0.60;;;20.20;99.90;;;;;;5025912;28;20046;-77
2022/07/11 11:33:58;;;;;;;1.20;0.50;;;20.50;99.90;;;;;;5026155;28;20044;-75
2022/07/11 11:36:25;;;;;;;2.20;0.70;;;20.60;99.90;;;;;;5019807;28;20081;-76
2022/07/11 11:38:52;;;;;;;1.25;0.50;;;20.70;99.90;;;;;;5024545;28;20450;-76
2022/07/11 11:41:29;;;;;;;2.30;0.50;;;20.80;99.90;;;;;;5011715;28;20057;-76
2022/07/11 11:43:56;;;;;;;1.23;0.50;;;20.90;99.90;;;;;;5022711;28;20079;-76
2022/07/11 11:46:27;;;;;;;1.35;0.40;;;20.80;99.90;;;;;;5023239;28;20045;-75
2022/07/11 11:49:01;;;;;;;1.05;0.50;;;20.60;99.90;;;;;;5028226;28;20077;-75
2022/07/11 11:51:27;;;;;;;1.17;0.50;;;20.50;99.90;;;;;;5012160;28;20049;-75
2022/07/11 11:53:55;;;;;;;2.13;0.52;;;20.30;99.90;;;;;;5027978;28;20050;-75
2022/07/11 11:56:28;;;;;;;2.63;0.55;;;20.30;99.90;;;;;;5028250;28;20048;-76
2022/07/11 11:59:12;;;;;;;1.88;0.52;;;20.30;99.90;;;;;;5010557;28;20052;-75
2022/07/11 12:01:40;;;;;;;1.00;0.50;;;20.30;99.90;;;;;;5027490;28;20049;-75
2022/07/11 12:04:12;;;;;;;1.20;0.60;;;20.30;99.90;;;;;;5026111;28;20049;-80
2022/07/11 12:06:40;;;;;;;2.45;0.60;;;20.20;99.90;;;;;;5025933;28;20111;-75
2022/07/11 12:09:11;;;;;;;1.80;0.50;;;20.10;99.90;;;;;;5024558;28;20037;-75
2022/07/11 12:11:38;;;;;;;2.28;0.55;;;20.10;99.90;;;;;;5039677;28;20057;-78
2022/07/11 12:14:06;;;;;;;1.50;0.60;;;20.10;99.90;;;;;;5010201;28;20257;-75
2022/07/11 12:16:43;;;;;;;1.88;0.60;;;20.10;99.90;;;;;;5010763;28;20049;-75
2022/07/11 12:19:09;;;;;;;0.65;0.50;;;20.20;99.90;;;;;;5026873;28;20069;-74
2022/07/11 12:21:36;;;;;;;2.25;0.57;;;20.40;99.90;;;;;;5025823;28;20092;-74
2022/07/11 12:24:08;;;;;;;1.05;0.55;;;20.70;99.90;;;;;;5026922;28;20049;-75
2022/07/11 12:26:37;;;;;;;2.30;0.68;;;20.80;99.90;;;;;;5024844;28;20095;-76
2022/07/11 12:29:18;;;;;;;1.95;0.60;;;20.80;99.90;;;;;;5006940;28;20045;-77
2022/07/11 12:31:59;;;;;;;1.02;0.50;;;20.90;99.90;;;;;;5009489;28;20063;-75
2022/07/11 12:34:31;;;;;;;1.20;0.50;;;20.90;99.90;;;;;;5023642;28;20054;-75
2022/07/11 12:37:03;;;;;;;;;;;20.90;99.90;;;;;;5026172;28;20041;-73
2022/07/11 12:39:31;;;;;;;1.75;0.60;;;20.90;99.90;;;;;;5020546;28;19921;-76
2022/07/11 12:41:59;;;;;;;0.70;0.50;;;21.00;99.90;;;;;;5022612;28;20483;-75
2022/07/11 12:47:11;;;;;;;0.43;0.40;;;21.20;99.90;;;;;;5038955;28;20447;-77
2022/07/11 12:49:39;;;;;;;1.92;0.50;;;21.20;99.90;;;;;;5023803;28;20060;-74
2022/07/11 12:52:05;;;;;;;1.63;0.60;;;21.40;99.90;;;;;;5021122;28;20046;-75
2022/07/11 12:54:33;;;;;;;1.08;0.57;;;21.50;99.90;;;;;;5027304;28;20049;-74
2022/07/11 12:57:03;;;;;;;3.63;0.60;;;21.60;99.90;;;;;;5029552;28;20053;-76
2022/07/11 12:59:33;;;;;;;1.85;0.60;;;21.60;99.90;;;;;;5023690;28;20053;-76
2022/07/11 13:02:03;;;;;;;2.22;0.55;;;21.60;99.90;;;;;;5028168;28;20452;-74
2022/07/11 13:04:30;;;;;;;1.92;0.60;;;21.50;99.90;;;;;;5025959;28;20049;-75